createdAt,value
2018-03-02T00:00:23.211Z,53.70
2018-03-02T00:02:50.716Z,53.60
2018-03-02T00:05:18.211Z,53.70
2018-03-02T00:07:46.517Z,53.80
2018-03-02T00:10:14.056Z,53.80
2018-03-02T00:12:42.332Z,53.90
2018-03-02T00:15:10.617Z,54.20
2018-03-02T00:17:38.903Z,54.00
2018-03-02T00:20:07.183Z,54.00
2018-03-02T00:22:35.483Z,54.00
2018-03-02T00:25:02.997Z,54.00
2018-03-02T00:27:30.521Z,54.00
2018-03-02T00:29:58.031Z,54.10
2018-03-02T00:32:25.529Z,54.30
2018-03-02T00:34:53.792Z,54.50
2018-03-02T00:37:22.067Z,54.50
2018-03-02T00:39:49.589Z,54.50
2018-03-02T00:42:17.122Z,54.40
2018-03-02T00:44:44.699Z,54.50
2018-03-02T00:47:12.203Z,54.60
2018-03-02T00:49:39.723Z,54.70
2018-03-02T00:52:07.223Z,54.70
2018-03-02T00:54:34.753Z,54.70
2018-03-02T00:57:02.281Z,54.80
2018-03-02T00:59:31.386Z,55.40
2018-03-02T01:01:59.687Z,54.80
2018-03-02T01:04:27.217Z,54.80
2018-03-02T01:06:54.777Z,54.90
2018-03-02T01:09:22.293Z,55.00
2018-03-02T01:11:49.889Z,55.10
2018-03-02T01:14:17.405Z,55.00
2018-03-02T01:16:44.909Z,55.10
2018-03-02T01:19:12.448Z,55.00
2018-03-02T01:21:39.947Z,55.20
2018-03-02T01:24:07.469Z,55.30
2018-03-02T01:26:34.973Z,55.20
2018-03-02T01:29:02.500Z,55.00
2018-03-02T01:31:29.993Z,55.10
2018-03-02T01:33:57.513Z,55.20
2018-03-02T01:36:24.997Z,55.30
2018-03-02T01:38:52.595Z,55.30
2018-03-02T01:41:20.095Z,55.40
2018-03-02T01:43:56.670Z,55.60
2018-03-02T01:46:24.176Z,55.60
2018-03-02T01:48:51.688Z,55.60
2018-03-02T01:51:31.774Z,55.70
2018-03-02T01:53:59.277Z,55.70
2018-03-02T01:56:26.813Z,55.90
2018-03-02T01:58:54.325Z,55.90
2018-03-02T02:01:22.598Z,55.80
2018-03-02T02:03:50.876Z,55.90
2018-03-02T02:06:19.649Z,56.10
2018-03-02T02:08:47.174Z,55.90
2018-03-02T02:11:14.679Z,55.90
2018-03-02T02:13:42.219Z,56.10
2018-03-02T02:16:10.734Z,56.10
2018-03-02T02:18:38.277Z,56.10
2018-03-02T02:21:05.786Z,56.80
2018-03-02T02:23:34.060Z,56.40
2018-03-02T02:26:02.326Z,56.50
2018-03-02T02:28:29.848Z,56.40
2018-03-02T02:30:57.372Z,56.50
2018-03-02T02:33:24.980Z,56.70
2018-03-02T02:35:52.542Z,56.80
2018-03-02T02:38:20.053Z,56.90
2018-03-02T02:40:48.780Z,56.90
2018-03-02T02:43:16.339Z,56.90
2018-03-02T02:45:43.867Z,56.90
2018-03-02T02:48:12.198Z,57.00
2018-03-02T02:50:39.714Z,57.00
2018-03-02T02:53:07.962Z,57.30
2018-03-02T02:55:35.461Z,57.60
2018-03-02T02:58:03.736Z,57.00
2018-03-02T03:00:31.281Z,56.90
2018-03-02T03:02:58.940Z,57.00
2018-03-02T03:05:26.477Z,57.00
2018-03-02T03:07:53.969Z,57.00
2018-03-02T03:10:21.470Z,56.90
2018-03-02T03:12:49.739Z,57.10
2018-03-02T03:15:17.254Z,57.00
2018-03-02T03:17:44.763Z,57.10
2018-03-02T03:20:13.029Z,57.30
2018-03-02T03:22:40.540Z,57.70
2018-03-02T03:25:08.116Z,57.10
2018-03-02T03:27:35.625Z,57.00
2018-03-02T03:30:03.151Z,57.10
2018-03-02T03:32:30.804Z,57.10
2018-03-02T03:34:58.325Z,57.00
2018-03-02T03:37:25.824Z,57.00
2018-03-02T03:39:53.382Z,57.00
2018-03-02T03:42:20.872Z,57.20
2018-03-02T03:44:48.378Z,57.20
2018-03-02T03:47:16.635Z,56.90
2018-03-02T03:49:44.142Z,56.90
2018-03-02T03:52:12.422Z,57.10
2018-03-02T03:54:40.707Z,57.00
2018-03-02T03:57:08.969Z,57.10
2018-03-02T03:59:36.528Z,57.10
2018-03-02T04:02:04.914Z,57.30
2018-03-02T04:04:32.418Z,57.10
2018-03-02T04:06:59.926Z,57.30
2018-03-02T04:09:27.458Z,57.10
2018-03-02T04:11:54.970Z,57.20
2018-03-02T04:14:22.509Z,57.30
2018-03-02T04:16:50.054Z,57.40
2018-03-02T04:19:17.559Z,57.40
2018-03-02T04:21:45.086Z,57.40
2018-03-02T04:24:12.719Z,57.40
2018-03-02T04:26:40.679Z,57.40
2018-03-02T04:29:08.936Z,57.60
2018-03-02T04:31:36.524Z,57.60
2018-03-02T04:34:04.792Z,57.60
2018-03-02T04:36:33.087Z,57.20
2018-03-02T04:39:01.347Z,57.60
2018-03-02T04:41:28.866Z,57.60
2018-03-02T04:43:56.358Z,57.70
2018-03-02T04:46:23.888Z,57.80
2018-03-02T04:48:51.693Z,57.50
2018-03-02T04:51:19.213Z,57.60
2018-03-02T04:53:46.702Z,57.70
2018-03-02T04:56:14.198Z,57.80
2018-03-02T04:58:41.748Z,57.70
2018-03-02T05:01:09.374Z,58.10
2018-03-02T05:03:37.004Z,57.60
2018-03-02T05:06:05.358Z,57.80
2018-03-02T05:08:32.861Z,58.20
2018-03-02T05:11:00.412Z,57.90
2018-03-02T05:13:28.690Z,57.80
2018-03-02T05:15:56.230Z,57.80
2018-03-02T05:18:23.718Z,57.90
2018-03-02T05:20:51.247Z,58.00
2018-03-02T05:23:18.729Z,58.10
2018-03-02T05:25:46.365Z,58.20
2018-03-02T05:28:13.866Z,58.30
2018-03-02T05:30:41.380Z,58.20
2018-03-02T05:33:08.976Z,58.30
2018-03-02T05:35:36.516Z,58.30
2018-03-02T05:38:04.035Z,58.30
2018-03-02T05:40:32.329Z,58.40
2018-03-02T05:42:59.839Z,58.30
2018-03-02T05:45:27.385Z,58.50
2018-03-02T05:47:54.892Z,58.40
2018-03-02T05:50:22.395Z,58.40
2018-03-02T05:52:49.938Z,58.80
2018-03-02T05:55:17.433Z,58.40
2018-03-02T05:57:44.949Z,58.30
2018-03-02T06:00:13.164Z,58.40
2018-03-02T06:02:40.677Z,58.40
2018-03-02T06:05:08.225Z,58.30
2018-03-02T06:07:35.729Z,58.30
2018-03-02T06:10:03.987Z,58.40
2018-03-02T06:12:31.537Z,58.40
2018-03-02T06:14:59.039Z,58.50
2018-03-02T06:17:26.575Z,58.40
2018-03-02T06:19:54.103Z,58.30
2018-03-02T06:22:21.613Z,58.10
2018-03-02T06:24:49.241Z,57.90
2018-03-02T06:27:16.761Z,58.00
2018-03-02T06:29:46.261Z,57.80
2018-03-02T06:32:14.542Z,57.90
2018-03-02T06:34:42.840Z,57.70
2018-03-02T06:37:10.365Z,57.70
2018-03-02T06:39:37.897Z,57.50
2018-03-02T06:42:05.456Z,57.50
2018-03-02T06:44:32.951Z,57.20
2018-03-02T06:47:00.472Z,57.00
2018-03-02T06:49:27.976Z,57.00
2018-03-02T06:51:55.485Z,57.10
2018-03-02T06:54:23.923Z,56.60
2018-03-02T06:56:51.453Z,56.30
2018-03-02T06:59:18.955Z,56.30
2018-03-02T07:01:46.443Z,56.60
2018-03-02T07:04:14.748Z,55.50
2018-03-02T07:06:42.999Z,55.30
2018-03-02T07:09:10.511Z,55.20
2018-03-02T07:11:38.052Z,55.30
2018-03-02T07:14:05.553Z,54.80
2018-03-02T07:16:33.066Z,54.60
2018-03-02T07:19:01.336Z,54.90
2018-03-02T07:21:29.699Z,55.00
2018-03-02T07:23:57.166Z,55.00
2018-03-02T07:26:24.723Z,54.90
2018-03-02T07:28:52.926Z,55.00
2018-03-02T07:31:21.234Z,54.60
2018-03-02T07:33:48.735Z,54.50
2018-03-02T07:36:16.248Z,54.20
2018-03-02T07:38:43.769Z,54.00
2018-03-02T07:41:11.284Z,53.90
2018-03-02T07:43:38.792Z,53.80
2018-03-02T07:46:06.339Z,54.00
2018-03-02T07:48:33.924Z,53.90
2018-03-02T07:51:01.433Z,54.00
2018-03-02T07:53:28.981Z,53.70
2018-03-02T07:55:57.471Z,53.50
2018-03-02T07:58:25.747Z,53.60
2018-03-02T08:00:54.021Z,53.50
2018-03-02T08:03:21.551Z,53.40
2018-03-02T08:05:49.099Z,53.50
2018-03-02T08:08:16.745Z,52.80
2018-03-02T08:10:45.032Z,52.50
2018-03-02T08:13:13.955Z,52.50
2018-03-02T08:15:41.461Z,52.50
2018-03-02T08:18:09.023Z,52.50
2018-03-02T08:20:37.344Z,52.40
2018-03-02T08:23:04.935Z,52.80
2018-03-02T08:25:32.461Z,52.20
2018-03-02T08:27:59.994Z,51.90
2018-03-02T08:30:27.514Z,51.80
2018-03-02T08:32:55.105Z,51.40
2018-03-02T08:35:22.623Z,51.40
2018-03-02T08:37:50.143Z,51.30
2018-03-02T08:40:17.669Z,51.10
2018-03-02T08:42:45.257Z,51.10
2018-03-02T08:45:12.805Z,51.00
2018-03-02T08:47:40.467Z,50.90
2018-03-02T08:50:08.046Z,50.70
2018-03-02T08:52:35.593Z,50.60
2018-03-02T08:55:03.109Z,50.40
2018-03-02T08:57:31.377Z,50.80
2018-03-02T08:59:58.873Z,50.80
2018-03-02T09:02:26.405Z,50.70
2018-03-02T09:04:53.946Z,50.40
2018-03-02T09:07:21.455Z,49.90
2018-03-02T09:09:48.957Z,49.90
2018-03-02T09:12:17.423Z,50.10
2018-03-02T09:14:44.911Z,49.60
2018-03-02T09:17:12.463Z,49.60
2018-03-02T09:19:39.952Z,49.60
2018-03-02T09:22:07.499Z,49.20
2018-03-02T09:24:35.070Z,49.20
2018-03-02T09:27:02.655Z,48.70
2018-03-02T09:29:30.190Z,48.40
2018-03-02T09:31:57.695Z,48.60
2018-03-02T09:34:25.990Z,48.70
2018-03-02T09:36:54.330Z,47.80
2018-03-02T09:39:21.846Z,47.80
2018-03-02T09:41:49.382Z,47.80
2018-03-02T09:44:17.711Z,47.40
2018-03-02T09:46:45.229Z,47.40
2018-03-02T09:49:13.512Z,47.00
2018-03-02T09:51:41.794Z,46.70
2018-03-02T09:54:10.184Z,46.40
2018-03-02T09:56:38.431Z,46.00
2018-03-02T09:59:05.955Z,46.00
2018-03-02T10:01:33.494Z,45.90
2018-03-02T10:04:01.775Z,45.00
2018-03-02T10:06:30.375Z,45.10
2018-03-02T10:08:57.901Z,45.10
2018-03-02T10:11:26.918Z,44.90
2018-03-02T10:13:55.235Z,45.00
2018-03-02T10:16:22.743Z,44.90
2018-03-02T10:18:50.279Z,45.00
2018-03-02T10:21:17.839Z,45.20
2018-03-02T10:23:45.353Z,45.00
2018-03-02T10:26:13.699Z,44.70
2018-03-02T10:28:41.290Z,44.70
2018-03-02T10:31:09.557Z,44.20
2018-03-02T10:33:37.084Z,44.10
2018-03-02T10:36:04.594Z,43.90
2018-03-02T10:38:32.771Z,43.80
2018-03-02T10:41:00.276Z,43.10
2018-03-02T10:43:28.154Z,42.70
2018-03-02T10:45:56.426Z,43.00
2018-03-02T10:48:23.972Z,43.00
2018-03-02T10:50:51.465Z,42.30
2018-03-02T10:53:19.194Z,42.30
2018-03-02T10:55:47.496Z,42.40
2018-03-02T10:58:15.032Z,42.40
2018-03-02T11:00:48.423Z,41.90
2018-03-02T11:03:21.612Z,42.00
2018-03-02T11:05:49.107Z,42.00
2018-03-02T11:08:17.365Z,41.00
2018-03-02T11:10:45.702Z,40.70
2018-03-02T11:13:13.352Z,40.70
2018-03-02T11:15:40.925Z,40.60
2018-03-02T11:18:08.670Z,40.60
2018-03-02T11:20:36.203Z,40.50
2018-03-02T11:23:03.719Z,40.20
2018-03-02T11:25:31.259Z,39.40
2018-03-02T11:27:59.560Z,39.10
2018-03-02T11:30:27.088Z,39.00
2018-03-02T11:32:56.016Z,39.50
2018-03-02T11:35:23.571Z,39.30
2018-03-02T11:37:51.060Z,39.40
2018-03-02T11:40:18.661Z,39.00
2018-03-02T11:42:46.174Z,38.80
2018-03-02T11:45:13.741Z,38.40
2018-03-02T11:47:41.330Z,38.10
2018-03-02T11:50:08.831Z,38.20
2018-03-02T11:52:37.167Z,38.50
2018-03-02T11:55:04.697Z,38.20
2018-03-02T11:57:32.977Z,38.80
2018-03-02T12:00:00.688Z,38.70
2018-03-02T12:02:28.194Z,38.70
2018-03-02T12:04:56.460Z,39.30
2018-03-02T12:07:24.762Z,39.30
2018-03-02T12:09:53.032Z,38.60
2018-03-02T12:12:21.335Z,39.00
2018-03-02T12:14:48.847Z,38.60
2018-03-02T12:17:16.464Z,38.90
2018-03-02T12:19:44.080Z,38.90
2018-03-02T12:22:11.666Z,38.00
2018-03-02T12:24:39.952Z,38.10
2018-03-02T12:27:07.470Z,38.10
2018-03-02T12:29:34.974Z,37.50
2018-03-02T12:32:02.492Z,37.50
2018-03-02T12:34:30.423Z,37.30
2018-03-02T12:36:58.707Z,38.00
2018-03-02T12:39:26.966Z,37.00
2018-03-02T12:41:54.497Z,37.50
2018-03-02T12:44:22.043Z,37.10
2018-03-02T12:46:49.535Z,37.20
2018-03-02T12:49:17.313Z,36.90
2018-03-02T12:51:44.829Z,36.80
2018-03-02T12:54:12.378Z,37.10
2018-03-02T12:56:40.662Z,37.00
2018-03-02T12:59:08.198Z,37.00
2018-03-02T13:01:35.726Z,37.30
2018-03-02T13:04:03.260Z,37.40
2018-03-02T13:06:30.806Z,37.20
2018-03-02T13:08:59.089Z,37.00
2018-03-02T13:11:27.363Z,36.60
2018-03-02T13:13:55.630Z,36.70
2018-03-02T13:16:23.165Z,36.70
2018-03-02T13:18:50.756Z,37.10
2018-03-02T13:21:18.268Z,37.00
2018-03-02T13:23:45.783Z,36.70
2018-03-02T13:29:12.664Z,37.00
2018-03-02T13:31:40.933Z,36.80
2018-03-02T13:34:21.262Z,37.00
2018-03-02T13:36:48.912Z,37.00
2018-03-02T13:39:41.142Z,37.10
2018-03-02T13:42:11.364Z,37.60
2018-03-02T13:44:38.858Z,38.00
2018-03-02T13:47:06.371Z,37.80
2018-03-02T13:49:45.917Z,37.70
2018-03-02T13:52:13.428Z,37.60
2018-03-02T13:54:40.910Z,37.50
2018-03-02T13:57:21.236Z,37.00
2018-03-02T13:59:48.790Z,37.50
2018-03-02T14:02:28.159Z,36.80
2018-03-02T14:05:00.222Z,37.10
2018-03-02T14:07:28.502Z,37.10
2018-03-02T14:09:56.794Z,37.10
2018-03-02T14:12:25.075Z,36.40
2018-03-02T14:14:52.629Z,36.40
2018-03-02T14:17:20.998Z,34.20
2018-03-02T14:19:48.498Z,34.20
2018-03-02T14:22:16.041Z,33.40
2018-03-02T14:24:44.301Z,33.50
2018-03-02T14:27:12.594Z,34.60
2018-03-02T14:29:41.006Z,35.70
2018-03-02T14:32:08.547Z,35.20
2018-03-02T14:34:36.854Z,36.20
2018-03-02T14:37:04.427Z,36.10
2018-03-02T14:39:31.964Z,36.10
2018-03-02T14:42:00.262Z,36.50
2018-03-02T14:44:27.815Z,36.50
2018-03-02T14:46:55.367Z,36.60
2018-03-02T14:49:23.667Z,36.80
2018-03-02T14:51:51.227Z,36.80
2018-03-02T14:54:19.709Z,37.10
2018-03-02T14:56:48.101Z,37.10
2018-03-02T14:59:15.664Z,37.10
2018-03-02T15:01:44.071Z,37.00
2018-03-02T15:04:11.679Z,36.90
2018-03-02T15:06:39.522Z,36.80
2018-03-02T15:09:07.057Z,37.30
2018-03-02T15:11:35.341Z,36.80
2018-03-02T15:14:02.843Z,37.00
2018-03-02T15:16:30.380Z,37.10
2018-03-02T15:18:57.947Z,37.30
2018-03-02T15:21:25.499Z,36.90
2018-03-02T15:23:53.051Z,36.80
2018-03-02T15:26:20.629Z,36.80
2018-03-02T15:28:48.183Z,37.20
2018-03-02T15:31:15.769Z,37.10
2018-03-02T15:33:43.375Z,37.30
2018-03-02T15:36:10.897Z,37.30
2018-03-02T15:38:38.647Z,37.40
2018-03-02T15:41:06.175Z,37.00
2018-03-02T15:43:34.497Z,37.50
2018-03-02T15:46:02.021Z,37.50
2018-03-02T15:48:29.637Z,37.10
2018-03-02T15:50:57.173Z,37.20
2018-03-02T15:53:25.461Z,37.50
2018-03-02T15:55:52.993Z,37.50
2018-03-02T15:58:20.534Z,37.30
2018-03-02T16:00:48.079Z,37.40
2018-03-02T16:03:15.763Z,37.30
2018-03-02T16:05:43.279Z,37.30
2018-03-02T16:08:10.853Z,37.30
2018-03-02T16:10:38.406Z,37.60
2018-03-02T16:13:07.343Z,37.50
2018-03-02T16:15:34.934Z,37.30
2018-03-02T16:18:03.313Z,37.30
2018-03-02T16:20:30.865Z,37.20
2018-03-02T16:22:58.452Z,37.40
2018-03-02T16:25:26.748Z,37.50
2018-03-02T16:27:55.004Z,37.20
2018-03-02T16:30:23.340Z,37.20
2018-03-02T16:32:50.844Z,37.20
2018-03-02T16:35:18.375Z,38.00
2018-03-02T16:37:45.909Z,37.70
2018-03-02T16:40:14.239Z,37.60
2018-03-02T16:42:42.020Z,37.60
2018-03-02T16:45:09.520Z,37.60
2018-03-02T16:47:37.873Z,37.50
2018-03-02T16:50:06.300Z,37.90
2018-03-02T16:52:33.820Z,37.90
2018-03-02T16:55:01.353Z,38.10
2018-03-02T16:57:28.873Z,38.20
2018-03-02T16:59:57.182Z,38.30
2018-03-02T17:02:24.721Z,38.30
2018-03-02T17:04:53.090Z,38.60
2018-03-02T17:07:20.631Z,38.60
2018-03-02T17:09:48.354Z,38.70
2018-03-02T17:12:15.978Z,38.90
2018-03-02T17:14:44.287Z,38.80
2018-03-02T17:17:11.974Z,38.80
2018-03-02T17:19:39.634Z,39.00
2018-03-02T17:22:07.190Z,39.10
2018-03-02T17:24:34.748Z,39.00
2018-03-02T17:27:03.128Z,39.30
2018-03-02T17:29:30.691Z,39.20
2018-03-02T17:31:59.004Z,39.60
2018-03-02T17:34:26.531Z,39.60
2018-03-02T17:36:54.802Z,39.60
2018-03-02T17:39:22.340Z,39.60
2018-03-02T17:41:49.864Z,39.60
2018-03-02T17:44:17.413Z,39.60
2018-03-02T17:46:45.725Z,39.70
2018-03-02T17:49:13.305Z,39.70
2018-03-02T17:51:40.872Z,39.90
2018-03-02T17:54:08.412Z,40.10
2018-03-02T17:56:35.930Z,40.00
2018-03-02T17:59:03.470Z,40.00
2018-03-02T18:01:31.003Z,39.60
2018-03-02T18:03:58.640Z,40.10
2018-03-02T18:06:26.926Z,40.30
2018-03-02T18:08:55.246Z,40.20
2018-03-02T18:11:22.784Z,40.20
2018-03-02T18:13:50.311Z,40.30
2018-03-02T18:16:17.866Z,40.30
2018-03-02T18:18:45.402Z,40.40
2018-03-02T18:21:12.928Z,40.50
2018-03-02T18:23:41.239Z,40.70
2018-03-02T18:26:08.761Z,40.60
2018-03-02T18:28:36.314Z,40.60
2018-03-02T18:31:03.810Z,40.80
2018-03-02T18:33:31.981Z,41.40
2018-03-02T18:36:00.277Z,41.30
2018-03-02T18:38:27.816Z,41.30
2018-03-02T18:40:56.146Z,41.40
2018-03-02T18:43:23.652Z,41.40
2018-03-02T18:45:51.936Z,41.50
2018-03-02T18:48:20.322Z,41.80
2018-03-02T18:50:48.634Z,42.00
2018-03-02T18:53:16.446Z,41.90
2018-03-02T18:55:44.175Z,41.90
2018-03-02T18:58:11.692Z,42.30
2018-03-02T19:00:39.250Z,42.20
2018-03-02T19:03:06.876Z,41.90
2018-03-02T19:05:34.690Z,42.20
2018-03-02T19:08:02.905Z,42.20
2018-03-02T19:10:30.815Z,42.40
2018-03-02T19:12:59.302Z,42.50
2018-03-02T19:15:26.849Z,42.60
2018-03-02T19:17:55.294Z,42.70
2018-03-02T19:20:23.748Z,42.90
2018-03-02T19:22:51.242Z,42.80
2018-03-02T19:25:19.524Z,43.10
2018-03-02T19:27:47.804Z,43.20
2018-03-02T19:30:15.331Z,43.20
2018-03-02T19:32:42.856Z,43.40
2018-03-02T19:35:10.502Z,43.40
2018-03-02T19:37:38.125Z,43.30
2018-03-02T19:40:05.804Z,43.40
2018-03-02T19:42:34.973Z,43.80
2018-03-02T19:45:02.582Z,43.70
2018-03-02T19:47:30.958Z,43.90
2018-03-02T19:49:59.294Z,44.30
2018-03-02T19:52:27.100Z,44.20
2018-03-02T19:54:55.548Z,44.40
2018-03-02T19:57:23.059Z,44.40
2018-03-02T19:59:50.615Z,44.60
2018-03-02T20:02:18.144Z,44.80
2018-03-02T20:04:45.683Z,44.80
2018-03-02T20:07:13.231Z,44.80
2018-03-02T20:09:41.505Z,45.00
2018-03-02T20:12:09.039Z,44.90
2018-03-02T20:14:36.629Z,44.60
2018-03-02T20:17:04.944Z,44.80
2018-03-02T20:19:32.505Z,44.80
2018-03-02T20:22:00.079Z,44.80
2018-03-02T20:24:27.664Z,45.10
2018-03-02T20:26:55.235Z,45.20
2018-03-02T20:29:22.785Z,45.30
2018-03-02T20:31:50.320Z,45.00
2018-03-02T20:34:19.147Z,44.80
2018-03-02T20:36:46.691Z,45.00
2018-03-02T20:39:14.670Z,45.20
2018-03-02T20:41:42.193Z,45.40
2018-03-02T20:44:10.487Z,45.70
2018-03-02T20:46:38.781Z,45.90
2018-03-02T20:49:07.063Z,46.00
2018-03-02T20:51:34.627Z,46.00
2018-03-02T20:54:02.215Z,46.00
2018-03-02T20:56:29.739Z,46.40
2018-03-02T20:58:58.022Z,46.80
2018-03-02T21:01:26.315Z,46.50
2018-03-02T21:03:53.911Z,46.50
2018-03-02T21:06:21.459Z,46.60
2018-03-02T21:08:48.988Z,46.80
2018-03-02T21:11:17.849Z,46.90
2018-03-02T21:13:45.556Z,47.00
2018-03-02T21:16:13.835Z,47.30
2018-03-02T21:18:42.093Z,47.60
2018-03-02T21:21:10.408Z,47.50
2018-03-02T21:23:38.894Z,47.60
2018-03-02T21:26:06.779Z,47.60
2018-03-02T21:28:34.323Z,47.70
2018-03-02T21:31:02.651Z,48.00
2018-03-02T21:33:32.451Z,48.00
2018-03-02T21:35:57.793Z,48.30
2018-03-02T21:38:25.334Z,48.20
2018-03-02T21:40:52.879Z,48.30
2018-03-02T21:43:20.399Z,48.50
2018-03-02T21:45:48.059Z,48.50
2018-03-02T21:48:15.716Z,48.60
2018-03-02T21:50:43.383Z,48.80
2018-03-02T21:53:10.953Z,49.00
2018-03-02T21:55:38.479Z,49.10
2018-03-02T21:58:06.945Z,49.60
2018-03-02T22:00:34.458Z,49.30
2018-03-02T22:03:01.977Z,49.30
2018-03-02T22:05:30.948Z,49.10
2018-03-02T22:07:58.463Z,49.10
2018-03-02T22:10:25.972Z,49.20
2018-03-02T22:12:54.202Z,49.30
2018-03-02T22:15:21.742Z,49.60
2018-03-02T22:17:50.012Z,50.00
2018-03-02T22:20:17.604Z,50.00
2018-03-02T22:22:45.169Z,50.10
2018-03-02T22:25:13.412Z,50.20
2018-03-02T22:27:41.757Z,50.60
2018-03-02T22:30:09.279Z,50.60
2018-03-02T22:32:37.597Z,51.00
2018-03-02T22:35:05.154Z,50.90
2018-03-02T22:37:32.744Z,51.00
2018-03-02T22:40:00.309Z,51.30
2018-03-02T22:42:27.854Z,51.40
2018-03-02T22:44:55.365Z,51.60
2018-03-02T22:47:23.686Z,52.20
2018-03-02T22:49:51.227Z,52.10
2018-03-02T22:52:19.494Z,52.30
2018-03-02T22:54:47.848Z,52.60
2018-03-02T22:57:15.372Z,52.60
2018-03-02T22:59:42.889Z,52.60
2018-03-02T23:02:10.407Z,52.70
2018-03-02T23:04:37.999Z,52.80
2018-03-02T23:07:05.524Z,52.70
2018-03-02T23:09:33.029Z,52.80
2018-03-02T23:12:00.703Z,52.90
2018-03-02T23:14:28.244Z,53.10
2018-03-02T23:16:55.755Z,53.10
2018-03-02T23:19:24.031Z,53.50
2018-03-02T23:21:52.315Z,53.90
2018-03-02T23:24:21.105Z,53.60
2018-03-02T23:26:49.383Z,53.60
2018-03-02T23:29:17.676Z,53.90
2018-03-02T23:31:45.942Z,53.80
2018-03-02T23:34:14.215Z,53.80
2018-03-02T23:36:41.767Z,53.70
2018-03-02T23:39:09.278Z,53.90
2018-03-02T23:41:36.821Z,53.90
2018-03-02T23:44:05.097Z,54.10
2018-03-02T23:46:32.591Z,54.00
2018-03-02T23:49:00.154Z,54.10
2018-03-02T23:51:27.808Z,54.10
2018-03-02T23:53:55.329Z,54.20
2018-03-02T23:56:22.865Z,54.20
2018-03-02T23:58:50.425Z,54.30
